createdAt,value
2022-11-19T00:05:05.561Z,46
2022-11-19T00:13:13.650Z,41.1
2022-11-19T00:15:15.673Z,41.5
2022-11-19T00:19:22.916Z,51.8
2022-11-19T00:21:24.953Z,49.5
2022-11-19T00:29:33.056Z,47.3
2022-11-19T00:31:35.188Z,51.9
2022-11-19T00:35:42.306Z,43.9
2022-11-19T00:41:48.356Z,53.1
2022-11-19T00:43:50.403Z,57.6
2022-11-19T00:45:52.444Z,46
2022-11-19T00:47:57.610Z,45.1
2022-11-19T00:49:59.614Z,47.8
2022-11-19T00:53:04.252Z,59
2022-11-19T00:55:06.268Z,53.4
2022-11-19T00:57:08.311Z,47.7
2022-11-19T00:59:10.334Z,60.1
2022-11-19T01:01:15.546Z,52.5
2022-11-19T01:03:17.516Z,64.2
2022-11-19T01:05:19.532Z,57
2022-11-19T01:07:21.584Z,51
2022-11-19T01:09:23.592Z,57.2
2022-11-19T01:11:25.625Z,56.5
2022-11-19T01:13:27.624Z,65.8
2022-11-19T01:15:32.779Z,53
2022-11-19T01:17:34.814Z,58.9
2022-11-19T01:19:36.841Z,58.2
2022-11-19T01:21:38.835Z,66.1
2022-11-19T01:23:40.892Z,56.4
2022-11-19T01:25:42.905Z,65.9
2022-11-19T01:27:44.922Z,61.2
2022-11-19T01:31:52.105Z,67.4
2022-11-19T01:33:54.103Z,62.5
2022-11-19T01:35:56.151Z,63.5
2022-11-19T01:37:58.184Z,62.4
2022-11-19T01:42:02.206Z,64.7
2022-11-19T01:44:07.357Z,79.9
2022-11-19T01:46:09.377Z,64
2022-11-19T01:48:11.404Z,62.1
2022-11-19T01:49:13.977Z,60.7
2022-11-19T01:57:25.178Z,58.9
2022-11-19T01:59:27.182Z,58.8
2022-11-19T02:01:29.279Z,58.7
2022-11-19T02:03:31.230Z,68.7
2022-11-19T02:05:33.234Z,53.6
2022-11-19T02:07:35.280Z,65.2
2022-11-19T02:09:37.242Z,63
2022-11-19T02:11:42.409Z,69.1
2022-11-19T02:13:44.414Z,67.6
2022-11-19T02:15:46.459Z,55
2022-11-19T02:17:48.430Z,60.7
2022-11-19T02:19:50.438Z,59
2022-11-19T02:21:52.453Z,60.2
2022-11-19T02:23:54.459Z,58
2022-11-19T02:25:59.634Z,52.9
2022-11-19T02:28:01.646Z,75.2
2022-11-19T02:30:03.689Z,51.4
2022-11-19T02:32:05.680Z,50.1
2022-11-19T02:34:07.675Z,54.1
2022-11-19T02:36:09.702Z,44.7
2022-11-19T02:38:11.707Z,53.7
2022-11-19T02:40:16.881Z,52.1
2022-11-19T02:42:18.897Z,52.8
2022-11-19T02:44:20.923Z,44.6
2022-11-19T02:45:23.492Z,55.8
2022-11-19T02:49:27.478Z,53.8
2022-11-19T02:51:29.507Z,53.9
2022-11-19T02:53:34.678Z,57.8
2022-11-19T02:55:36.683Z,45.9
2022-11-19T02:57:38.715Z,53.1
2022-11-19T03:01:42.717Z,50.1
2022-11-19T03:03:44.688Z,53
2022-11-19T03:05:46.684Z,56
2022-11-19T03:07:51.827Z,52.6
2022-11-19T03:09:53.837Z,61.3
2022-11-19T03:11:55.838Z,55.5
2022-11-19T03:13:57.834Z,50.6
2022-11-19T03:18:01.819Z,55.3
2022-11-19T03:20:03.831Z,53.5
2022-11-19T03:22:08.978Z,51.8
2022-11-19T03:24:10.969Z,58.7
2022-11-19T03:26:12.974Z,53.9
2022-11-19T03:28:14.956Z,56.8
2022-11-19T03:30:16.968Z,47.7
2022-11-19T03:32:18.949Z,51.5
2022-11-19T03:34:20.966Z,48.9
2022-11-19T03:36:26.118Z,50.6
2022-11-19T03:38:28.131Z,51.7
2022-11-19T03:40:30.119Z,51.7
2022-11-19T03:42:53.250Z,61
2022-11-19T03:44:55.223Z,49.4
2022-11-19T03:46:57.242Z,58.2
2022-11-19T03:49:02.381Z,55
2022-11-19T03:51:04.388Z,73.7
2022-11-19T03:53:06.398Z,53.6
2022-11-19T03:55:08.374Z,47.9
2022-11-19T03:57:10.364Z,53.3
2022-11-19T03:59:12.373Z,55.3
2022-11-19T04:01:14.379Z,65.1
2022-11-19T04:03:19.505Z,59
2022-11-19T04:05:21.510Z,52.3
2022-11-19T04:07:23.578Z,53.3
2022-11-19T04:09:25.473Z,48.6
2022-11-19T04:11:27.503Z,52.3
2022-11-19T04:13:29.495Z,47.5
2022-11-19T04:15:31.476Z,57.3
2022-11-19T04:17:36.612Z,61.2
2022-11-19T04:19:38.620Z,50.7
2022-11-19T04:21:40.615Z,52.1
2022-11-19T04:23:42.609Z,50.1
2022-11-19T04:25:44.620Z,58.6
2022-11-19T04:27:46.570Z,58.2
2022-11-19T04:29:48.561Z,46
2022-11-19T04:31:53.686Z,65.5
2022-11-19T04:33:55.675Z,53.3
2022-11-19T04:35:57.645Z,48.8
2022-11-19T04:39:02.221Z,51.5
2022-11-19T04:41:04.206Z,52.7
2022-11-19T04:43:06.196Z,50.9
2022-11-19T04:45:11.380Z,43.5
2022-11-19T04:47:13.396Z,41.5
2022-11-19T04:49:15.376Z,59.4
2022-11-19T04:51:17.387Z,50.5
2022-11-19T04:53:19.378Z,51.1
2022-11-19T04:55:21.348Z,45.4
2022-11-19T04:59:28.482Z,48.2
2022-11-19T05:01:30.480Z,53.7
2022-11-19T05:07:36.456Z,42.2
2022-11-19T05:09:38.411Z,51
2022-11-19T05:13:45.510Z,50.3
2022-11-19T05:15:47.494Z,48.2
2022-11-19T05:19:52.963Z,46.7
2022-11-19T05:21:54.956Z,52.1
2022-11-19T05:23:56.906Z,52.7
2022-11-19T05:25:58.886Z,50.2
2022-11-19T05:28:04.024Z,44.4
2022-11-19T05:30:05.984Z,51.2
2022-11-19T05:32:07.956Z,51.8
2022-11-19T05:33:10.537Z,47.8
2022-11-19T05:35:12.531Z,58.5
2022-11-19T05:37:14.506Z,48.2
2022-11-19T05:39:21.533Z,48.7
2022-11-19T05:41:21.595Z,46.6
2022-11-19T05:43:23.570Z,40.6
2022-11-19T05:45:25.562Z,45.5
2022-11-19T05:47:27.530Z,47.4
2022-11-19T05:49:29.508Z,58.5
2022-11-19T05:51:31.485Z,45.4
2022-11-19T05:53:33.465Z,46.3
2022-11-19T05:55:38.604Z,56.1
2022-11-19T06:03:46.512Z,54.7
2022-11-19T06:07:50.435Z,55.1
2022-11-19T06:09:55.567Z,50.5
2022-11-19T06:11:57.574Z,44.3
2022-11-19T06:13:59.548Z,66
2022-11-19T06:16:01.519Z,51.2
2022-11-19T06:18:03.528Z,48.2
2022-11-19T06:20:05.464Z,53.6
2022-11-19T06:22:07.424Z,60.7
2022-11-19T06:24:12.588Z,61.6
2022-11-19T06:28:16.527Z,54.8
2022-11-19T06:29:19.344Z,62.4
2022-11-19T06:31:21.048Z,55.7
2022-11-19T06:33:22.999Z,53.3
2022-11-19T06:35:24.958Z,48.1
2022-11-19T06:43:35.965Z,54.6
2022-11-19T06:45:37.911Z,53.3
2022-11-19T06:47:39.862Z,64.1
2022-11-19T06:51:46.923Z,58.9
2022-11-19T06:55:50.841Z,62.1
2022-11-19T06:59:54.732Z,59.5
2022-11-19T07:01:56.719Z,56
2022-11-19T07:03:58.622Z,59.7
2022-11-19T07:08:05.632Z,47
2022-11-19T07:14:11.456Z,53.8
2022-11-19T07:18:15.306Z,44.5
2022-11-19T07:26:47.363Z,43.4
2022-11-19T07:28:49.250Z,55.8
2022-11-19T07:30:51.184Z,53.9
2022-11-19T07:32:56.251Z,53.7
2022-11-19T07:34:58.152Z,54.3
2022-11-19T07:37:00.074Z,54.9
2022-11-19T07:39:01.992Z,52.4
2022-11-19T07:41:03.950Z,55.5
2022-11-19T07:43:05.851Z,48.9
2022-11-19T07:45:07.751Z,49.3
2022-11-19T07:47:12.810Z,55.5
2022-11-19T07:49:14.718Z,53.6
2022-11-19T07:51:16.616Z,52.6
2022-11-19T07:53:18.526Z,48.2
2022-11-19T07:55:20.411Z,45.9
2022-11-19T07:57:27.231Z,47.3
2022-11-19T07:59:24.192Z,43.5
2022-11-19T08:01:29.335Z,50.5
2022-11-19T08:03:31.196Z,56.2
2022-11-19T08:05:33.111Z,46.4
2022-11-19T08:09:36.957Z,53.8
2022-11-19T08:11:38.821Z,41.8
2022-11-19T08:13:40.726Z,58.5
2022-11-19T08:15:45.791Z,52.5
2022-11-19T08:17:47.746Z,43.3
2022-11-19T08:19:49.624Z,46.1
2022-11-19T08:20:52.143Z,59.5
2022-11-19T08:22:54.052Z,58.6
2022-11-19T08:24:55.956Z,49.9
2022-11-19T08:26:57.866Z,41.4
2022-11-19T08:29:02.923Z,48.1
2022-11-19T08:31:04.834Z,41.8
2022-11-19T08:33:06.740Z,44.6
2022-11-19T08:35:08.648Z,45.1
2022-11-19T08:37:10.527Z,42.8
2022-11-19T08:39:12.435Z,64.3
2022-11-19T08:43:19.398Z,48.7
2022-11-19T08:51:27.017Z,47.7
2022-11-19T08:53:28.895Z,43.7
2022-11-19T08:55:30.814Z,38.8
2022-11-19T08:57:35.885Z,38
2022-11-19T08:59:37.797Z,39.9
2022-11-19T09:01:39.703Z,40.1
2022-11-19T09:05:43.536Z,45.2
2022-11-19T09:09:47.353Z,33.4
2022-11-19T09:11:52.401Z,45.2
2022-11-19T09:13:54.352Z,46.6
2022-11-19T09:15:56.214Z,44.5
2022-11-19T09:16:58.748Z,44.1
2022-11-19T09:19:00.669Z,38
2022-11-19T09:21:02.566Z,36.2
2022-11-19T09:23:04.497Z,34.5
2022-11-19T09:25:09.584Z,37.4
2022-11-19T09:27:11.503Z,42.4
2022-11-19T09:29:13.414Z,40.8
2022-11-19T09:31:15.337Z,39.5
2022-11-19T09:35:19.173Z,39.6
2022-11-19T09:37:21.112Z,34.3
2022-11-19T09:39:26.195Z,41.7
2022-11-19T09:41:28.108Z,36.3
2022-11-19T09:45:31.953Z,34.1
2022-11-19T09:47:33.903Z,31.2
2022-11-19T09:51:37.790Z,38.5
2022-11-19T09:57:46.783Z,38
2022-11-19T09:59:48.767Z,44.8
2022-11-19T10:01:50.682Z,48.8
2022-11-19T10:03:52.655Z,40.5
2022-11-19T10:07:59.675Z,31.7
2022-11-19T10:10:01.600Z,39.5
2022-11-19T10:13:06.110Z,30
2022-11-19T10:17:10.014Z,33.7
2022-11-19T10:19:12.020Z,27.8
2022-11-19T10:21:17.120Z,29.7
2022-11-19T10:23:19.055Z,30.7
2022-11-19T10:25:21.095Z,34.6
2022-11-19T10:27:24.925Z,29.3
2022-11-19T10:31:26.899Z,29.1
2022-11-19T10:33:28.852Z,25
2022-11-19T10:35:33.971Z,21.4
2022-11-19T10:39:37.936Z,25.3
2022-11-19T10:43:41.868Z,44
2022-11-19T10:45:43.844Z,20.4
2022-11-19T10:47:45.817Z,23.7
2022-11-19T10:49:50.974Z,19
2022-11-19T10:51:52.956Z,24.3
2022-11-19T10:53:54.958Z,28
2022-11-19T10:55:56.930Z,17
2022-11-19T10:57:58.934Z,15.9
2022-11-19T11:00:00.913Z,18.4
2022-11-19T11:02:02.929Z,17.1
2022-11-19T11:04:08.087Z,23.8
2022-11-19T11:06:10.133Z,21.6
2022-11-19T11:08:12.112Z,19.9
2022-11-19T11:10:30.345Z,20.2
2022-11-19T11:12:32.328Z,17
2022-11-19T11:16:39.543Z,22.1
2022-11-19T11:18:41.558Z,17.4
2022-11-19T11:20:43.620Z,17.2
2022-11-19T11:24:47.662Z,14
2022-11-19T11:26:49.681Z,15
2022-11-19T11:32:58.946Z,10.9
2022-11-19T11:35:19.363Z,15.3
2022-11-19T11:43:09.169Z,16.9
2022-11-19T11:45:14.375Z,13.3
2022-11-19T11:47:16.395Z,14.4
2022-11-19T11:49:18.444Z,13.5
2022-11-19T11:51:20.500Z,14.3
2022-11-19T11:53:22.568Z,9.8
2022-11-19T11:55:24.649Z,9
2022-11-19T11:57:26.690Z,13
2022-11-19T11:59:31.904Z,10.8
2022-11-19T12:01:33.966Z,12.1
2022-11-19T12:03:49.373Z,13.8
2022-11-19T12:04:38.612Z,9.6
2022-11-19T12:06:40.660Z,10.7
2022-11-19T12:08:42.726Z,11.7
2022-11-19T12:10:44.781Z,8.4
2022-11-19T12:12:49.985Z,12.2
2022-11-19T12:16:54.126Z,8
2022-11-19T12:18:56.223Z,13.5
2022-11-19T12:20:58.264Z,13.1
2022-11-19T12:23:00.335Z,28.1
2022-11-19T12:27:07.607Z,10.9
2022-11-19T12:35:15.931Z,11
2022-11-19T12:37:17.938Z,11.6
2022-11-19T12:39:20.241Z,10
2022-11-19T12:41:25.021Z,10.6
2022-11-19T12:43:27.121Z,13.2
2022-11-19T12:45:29.196Z,15.3
2022-11-19T12:47:31.248Z,15.9
2022-11-19T12:49:33.326Z,21.8
2022-11-19T12:51:35.389Z,14.9
2022-11-19T12:53:37.442Z,14
2022-11-19T12:59:46.708Z,11.9
2022-11-19T13:06:55.552Z,9.9
2022-11-19T13:09:00.749Z,14.8
2022-11-19T13:11:02.816Z,11.6
2022-11-19T13:15:06.992Z,10.2
2022-11-19T13:19:11.143Z,9.7
2022-11-19T13:21:13.232Z,10.8
2022-11-19T13:23:18.459Z,12.4
2022-11-19T13:25:20.522Z,12.5
2022-11-19T13:27:23.386Z,10.6
2022-11-19T13:29:24.635Z,11.1
2022-11-19T13:31:26.686Z,12.6
2022-11-19T13:33:28.751Z,11
2022-11-19T13:35:30.815Z,10.4
2022-11-19T13:37:36.027Z,12.3
2022-11-19T13:39:38.053Z,10.7
2022-11-19T13:41:40.121Z,12.1
2022-11-19T13:43:42.236Z,13.6
2022-11-19T13:45:44.253Z,13.8
2022-11-19T13:47:46.347Z,15.4
2022-11-19T13:49:48.388Z,14.2
2022-11-19T13:51:53.614Z,15.7
2022-11-19T13:54:01.218Z,13.3
2022-11-19T13:55:57.717Z,16.8
2022-11-19T13:57:00.321Z,14.8
2022-11-19T13:59:02.416Z,14.1
2022-11-19T14:01:08.041Z,14.7
2022-11-19T14:03:06.561Z,14.1
2022-11-19T14:11:17.955Z,31.4
2022-11-19T14:13:20.044Z,13.2
2022-11-19T14:17:24.191Z,27.1
2022-11-19T14:19:29.397Z,29.4
2022-11-19T14:21:31.474Z,18.6
2022-11-19T14:25:35.601Z,12.6
2022-11-19T14:27:37.675Z,9.3
2022-11-19T14:29:39.736Z,13.8
2022-11-19T14:31:41.798Z,12.6
2022-11-19T14:33:47.001Z,11.1
2022-11-19T14:35:49.065Z,12
2022-11-19T14:37:51.128Z,15.2
2022-11-19T14:39:53.361Z,10.4
2022-11-19T14:41:55.242Z,12
2022-11-19T14:43:57.299Z,11.2
2022-11-19T14:45:59.333Z,12.6
2022-11-19T14:48:04.555Z,8.5
2022-11-19T14:50:07.597Z,9.8
2022-11-19T14:52:08.662Z,12.1
2022-11-19T14:54:32.443Z,9.2
2022-11-19T14:56:33.627Z,14
2022-11-19T15:00:40.863Z,9.9
2022-11-19T15:02:42.907Z,11.6
2022-11-19T15:04:44.971Z,12.9
2022-11-19T15:06:46.984Z,9.7
2022-11-19T15:08:49.031Z,11.7
2022-11-19T15:10:51.049Z,13.3
2022-11-19T15:14:58.304Z,14.5
2022-11-19T15:17:00.316Z,12.8
2022-11-19T15:19:02.339Z,10.8
2022-11-19T15:21:04.367Z,10.1
2022-11-19T15:23:06.384Z,7.5
2022-11-19T15:25:12.444Z,12.8
2022-11-19T15:27:10.399Z,13.8
2022-11-19T15:29:15.818Z,12.1
2022-11-19T15:31:17.849Z,16.9
2022-11-19T15:33:19.863Z,11.5
2022-11-19T15:39:25.843Z,8.9
2022-11-19T15:45:35.007Z,9.7
2022-11-19T15:48:39.593Z,23.2
2022-11-19T15:50:41.540Z,11.1
2022-11-19T15:52:43.532Z,22.6
2022-11-19T15:54:45.524Z,14.6
2022-11-19T15:56:50.676Z,11.2
2022-11-19T15:58:52.662Z,11.5
2022-11-19T16:00:54.639Z,11
2022-11-19T16:02:56.626Z,12.6
2022-11-19T16:09:02.608Z,15.2
2022-11-19T16:17:13.617Z,11
2022-11-19T16:19:15.571Z,15.7
2022-11-19T16:21:17.559Z,14.9
2022-11-19T16:25:24.622Z,17.3
2022-11-19T16:27:26.577Z,16.1
2022-11-19T16:29:28.565Z,12.5
2022-11-19T16:31:30.525Z,20.5
2022-11-19T16:33:32.470Z,15.7
2022-11-19T16:35:34.448Z,16.3
2022-11-19T16:37:36.391Z,15.4
2022-11-19T16:39:41.484Z,17.3
2022-11-19T16:41:43.441Z,18.6
2022-11-19T16:43:45.455Z,16.8
2022-11-19T16:44:48.014Z,17.2
2022-11-19T16:46:49.974Z,22.4
2022-11-19T16:50:53.893Z,11.4
2022-11-19T16:52:59.020Z,15
2022-11-19T16:55:00.959Z,18
2022-11-19T16:57:02.927Z,15.1
2022-11-19T16:59:04.877Z,16.2
2022-11-19T17:01:08.406Z,12.7
2022-11-19T17:03:10.302Z,22.3
2022-11-19T17:05:12.236Z,12.9
2022-11-19T17:07:17.416Z,15.9
2022-11-19T17:09:19.304Z,14.7
2022-11-19T17:11:21.245Z,13.5
2022-11-19T17:13:23.202Z,17
2022-11-19T17:15:25.124Z,13.5
2022-11-19T17:17:27.093Z,14.6
2022-11-19T17:19:29.006Z,14.7
2022-11-19T17:21:34.100Z,28.4
2022-11-19T17:23:36.048Z,18.1
2022-11-19T17:31:43.775Z,17
2022-11-19T17:33:45.720Z,16.9
2022-11-19T17:35:50.809Z,17.7
2022-11-19T17:37:52.736Z,15.1
2022-11-19T17:40:57.184Z,21.9
2022-11-19T17:42:59.100Z,20
2022-11-19T17:45:04.751Z,25.5
2022-11-19T17:47:02.965Z,21.2
2022-11-19T17:49:08.061Z,19.1
2022-11-19T17:55:13.786Z,22.6
2022-11-19T17:59:38.783Z,23.2
2022-11-19T18:01:19.654Z,17.8
2022-11-19T18:03:24.650Z,17.7
2022-11-19T18:05:26.519Z,28.1
2022-11-19T18:07:28.489Z,19.5
2022-11-19T18:09:34.784Z,27.9
2022-11-19T18:11:32.252Z,24.3
2022-11-19T18:13:34.150Z,31.5
2022-11-19T18:15:36.026Z,26.2
2022-11-19T18:17:41.092Z,48.5
2022-11-19T18:19:42.950Z,49.4
2022-11-19T18:21:44.817Z,31
2022-11-19T18:23:46.757Z,27.5
2022-11-19T18:25:48.634Z,32.4
2022-11-19T18:27:50.522Z,32
2022-11-19T18:29:52.389Z,34.3
2022-11-19T18:31:57.418Z,33.2
2022-11-19T18:33:59.277Z,32.3
2022-11-19T18:36:01.152Z,43.2
2022-11-19T18:38:23.984Z,37.9
2022-11-19T18:40:25.862Z,30
2022-11-19T18:42:27.726Z,28.5
2022-11-19T18:44:32.757Z,36.7
2022-11-19T18:46:34.625Z,31.6
2022-11-19T18:48:36.462Z,54.2
2022-11-19T18:50:38.331Z,31.4
2022-11-19T18:52:40.205Z,49.2
2022-11-19T18:54:42.083Z,45
2022-11-19T18:56:43.971Z,40.4
2022-11-19T18:58:48.973Z,32.2
2022-11-19T19:00:50.827Z,33.2
2022-11-19T19:02:52.691Z,33.3
2022-11-19T19:19:11.090Z,30.7
2022-11-19T19:21:12.594Z,49.3
2022-11-19T19:27:21.278Z,43.6
2022-11-19T19:32:27.505Z,48.7
2022-11-19T19:34:29.361Z,63.3
2022-11-19T19:36:31.195Z,49.7
2022-11-19T19:38:33.039Z,49.3
2022-11-19T19:40:38.068Z,47.3
2022-11-19T19:42:41.279Z,44.2
2022-11-19T19:44:41.766Z,45.4
2022-11-19T19:46:43.619Z,44.2
2022-11-19T19:48:45.520Z,46.3
2022-11-19T19:50:47.341Z,39.7
2022-11-19T19:52:49.167Z,44.3
2022-11-19T19:54:54.190Z,44.7
2022-11-19T19:56:56.044Z,50.2
2022-11-19T19:58:57.891Z,48.2
2022-11-19T20:00:59.731Z,56.4
2022-11-19T20:03:01.531Z,62.4
2022-11-19T20:05:03.391Z,60.9
2022-11-19T20:07:05.310Z,73
2022-11-19T20:09:10.263Z,70.8
2022-11-19T20:11:12.074Z,48.1
2022-11-19T20:13:13.932Z,42
2022-11-19T20:15:15.753Z,57.2
2022-11-19T20:17:17.640Z,52.2
2022-11-19T20:19:19.436Z,48
2022-11-19T20:21:21.235Z,49
2022-11-19T20:23:26.262Z,51.4
2022-11-19T20:25:28.101Z,53.3
2022-11-19T20:27:29.947Z,52.6
2022-11-19T20:28:32.431Z,57.5
2022-11-19T20:30:34.295Z,47.7
2022-11-19T20:32:36.116Z,61.2
2022-11-19T20:34:37.947Z,67.9
2022-11-19T20:36:42.958Z,56.7
2022-11-19T20:38:44.815Z,51.2
2022-11-19T20:40:46.623Z,52.3
2022-11-19T20:42:48.460Z,58.6
2022-11-19T20:44:50.305Z,52.2
2022-11-19T20:46:52.158Z,59.2
2022-11-19T20:48:54.012Z,48.1
2022-11-19T20:50:59.000Z,68.3
2022-11-19T20:53:00.857Z,42.9
2022-11-19T20:55:06.552Z,42.9
2022-11-19T20:57:04.545Z,52.4
2022-11-19T20:59:06.353Z,43.9
2022-11-19T21:01:08.214Z,47.7
2022-11-19T21:03:10.070Z,51.9
2022-11-19T21:05:15.067Z,46.8
2022-11-19T21:09:19.277Z,51.4
2022-11-19T21:19:31.117Z,51.1
2022-11-19T21:21:32.936Z,51.9
2022-11-19T21:23:34.810Z,53.8
2022-11-19T21:24:37.320Z,63
2022-11-19T21:26:39.148Z,50.8
2022-11-19T21:28:40.975Z,55.4
2022-11-19T21:30:42.804Z,53.6
2022-11-19T21:32:47.778Z,64.1
2022-11-19T21:34:49.623Z,51.6
2022-11-19T21:36:51.445Z,62.9
2022-11-19T21:38:53.297Z,54.2
2022-11-19T21:40:55.099Z,83
2022-11-19T21:42:56.942Z,67.7
2022-11-19T21:44:58.773Z,71.6
2022-11-19T21:47:03.765Z,50.9
2022-11-19T21:49:05.584Z,55.4
2022-11-19T21:51:07.404Z,60.5
2022-11-19T21:53:09.254Z,66
2022-11-19T21:55:11.066Z,47.8
2022-11-19T21:59:14.717Z,61.6
2022-11-19T22:01:19.784Z,59.8
2022-11-19T22:03:21.542Z,55.9
2022-11-19T22:05:23.436Z,56.8
2022-11-19T22:07:25.236Z,44.2
2022-11-19T22:09:27.022Z,48.4
2022-11-19T22:11:28.996Z,61.1
2022-11-19T22:17:37.484Z,58.5
2022-11-19T22:22:00.127Z,54.7
2022-11-19T22:24:01.921Z,52.7
2022-11-19T22:26:03.768Z,56.7
2022-11-19T22:28:08.776Z,54.2
2022-11-19T22:30:10.613Z,63.9
2022-11-19T22:32:12.429Z,49.7
2022-11-19T22:34:14.262Z,53.2
2022-11-19T22:36:16.076Z,59.3
2022-11-19T22:42:24.697Z,57.5
2022-11-19T22:44:26.537Z,51.2
2022-11-19T22:50:31.998Z,66.4
2022-11-19T22:52:35.357Z,47.6
2022-11-19T22:56:42.091Z,55.4
2022-11-19T22:58:43.915Z,54.7
2022-11-19T23:00:45.793Z,63.8
2022-11-19T23:02:47.567Z,52.7
2022-11-19T23:04:49.375Z,66.4
2022-11-19T23:06:51.207Z,63.2
2022-11-19T23:08:53.009Z,50.8
2022-11-19T23:10:57.978Z,70.5
2022-11-19T23:12:59.775Z,57.5
2022-11-19T23:16:04.105Z,61.4
2022-11-19T23:18:05.921Z,52.3
2022-11-19T23:20:07.727Z,69.1
2022-11-19T23:22:09.523Z,72.8
2022-11-19T23:24:14.504Z,72.9
2022-11-19T23:26:16.294Z,61.3
2022-11-19T23:28:18.124Z,58.2
2022-11-19T23:30:37.809Z,79.1
2022-11-19T23:32:21.737Z,64.3
2022-11-19T23:34:23.533Z,72
2022-11-19T23:36:25.326Z,59
2022-11-19T23:38:30.310Z,66.7
2022-11-19T23:40:32.103Z,67
2022-11-19T23:44:35.691Z,56.3
2022-11-19T23:46:37.488Z,64.8
2022-11-19T23:54:47.816Z,67.5
2022-11-19T23:58:51.416Z,70.7
